Time;durP1;ratioP1;P1;durP2;ratioP2;P2;SDS_P1;SDS_P2;PMS_P1;PMS_P2;Temp;Humidity;BMP_temperature;BMP_pressure;BME280_temperature;BME280_humidity;BME280_pressure;Samples;Min_cycle;Max_cycle;Signal;HPM_P1;HPM_P2
2023/04/23 00:03:25;;;;;;;34.80;20.60;;;;;;;9.93;70.56;99994.29;217943;1290;139224;-86
2023/04/23 00:08:26;;;;;;;31.80;19.60;;;;;;;9.91;70.88;99991.60;218614;1290;138902;-85
2023/04/23 00:13:27;;;;;;;34.10;20.80;;;;;;;9.88;70.84;99983.41;218210;1290;138876;-86
2023/04/23 00:18:28;;;;;;;42.70;20.00;;;;;;;9.83;70.88;99982.52;218591;1290;138746;-86
2023/04/23 00:23:28;;;;;;;36.30;19.70;;;;;;;9.79;71.05;99978.02;218088;1290;139192;-86
2023/04/23 00:28:29;;;;;;;32.20;19.80;;;;;;;9.75;71.27;99969.75;218651;1292;138932;-86
2023/04/23 00:33:29;;;;;;;36.20;20.40;;;;;;;9.71;71.08;99968.21;218226;1291;138975;-86
2023/04/23 00:38:30;;;;;;;32.10;19.30;;;;;;;9.66;71.40;99958.38;218720;1291;140000;-85
2023/04/23 00:43:30;;;;;;;30.10;18.40;;;;;;;9.61;71.51;99956.85;218231;1290;139065;-86
2023/04/23 00:48:33;;;;;;;27.40;17.70;;;;;;;9.57;71.64;99949.04;218598;1291;138562;-86
2023/04/23 00:53:33;;;;;;;35.80;19.60;;;;;;;9.52;71.81;99937.86;218043;1291;138990;-86
2023/04/23 00:58:34;;;;;;;30.70;17.90;;;;;;;9.47;71.91;99941.75;218694;1290;138757;-86
2023/04/23 01:03:36;;;;;;;34.40;19.60;;;;;;;9.45;71.89;99934.36;218142;1290;140472;-86
2023/04/23 01:08:37;;;;;;;39.00;18.70;;;;;;;9.41;71.80;99934.48;218590;1291;139403;-86
2023/04/23 01:13:38;;;;;;;32.20;19.30;;;;;;;9.39;71.97;99934.63;218226;1291;138843;-86
2023/04/23 01:18:39;;;;;;;33.30;19.80;;;;;;;9.34;71.89;99927.30;218558;1290;138665;-86
2023/04/23 01:23:40;;;;;;;36.30;20.50;;;;;;;9.32;72.25;99927.59;218128;1290;139867;-85
2023/04/23 01:28:42;;;;;;;32.90;19.50;;;;;;;9.31;72.49;99929.69;218563;1290;139052;-85
2023/04/23 01:33:44;;;;;;;31.30;18.80;;;;;;;9.27;72.47;99920.57;218121;1290;138813;-85
2023/04/23 01:38:44;;;;;;;35.10;19.30;;;;;;;9.24;72.51;99919.13;218502;1291;139503;-85
2023/04/23 01:43:45;;;;;;;31.40;18.90;;;;;;;9.20;72.96;99915.02;218108;1290;139254;-85
2023/04/23 01:48:45;;;;;;;32.60;19.70;;;;;;;9.15;73.02;99909.02;218539;1290;140262;-85
2023/04/23 01:53:46;;;;;;;38.00;19.90;;;;;;;9.11;73.20;99907.50;218101;1290;138937;-85
2023/04/23 01:58:46;;;;;;;31.40;18.70;;;;;;;9.08;73.40;99909.42;218600;1291;138871;-85
2023/04/23 02:03:48;;;;;;;30.70;19.10;;;;;;;9.02;73.30;99902.39;218067;1291;139211;-85
2023/04/23 02:08:50;;;;;;;35.70;21.40;;;;;;;8.99;73.39;99903.46;218528;1290;140319;-85
2023/04/23 02:13:50;;;;;;;38.30;19.80;;;;;;;8.96;73.68;99898.33;218261;1290;139199;-86
2023/04/23 02:18:51;;;;;;;38.00;19.60;;;;;;;8.95;73.78;99894.57;218600;1291;138642;-85
2023/04/23 02:23:51;;;;;;;35.30;18.80;;;;;;;8.93;73.77;99893.77;217985;1290;139051;-85
2023/04/23 02:28:52;;;;;;;33.70;20.00;;;;;;;8.89;74.02;99893.34;218550;1290;138870;-85
2023/04/23 02:33:52;;;;;;;34.30;19.70;;;;;;;8.85;74.03;99894.64;218133;1291;139725;-85
2023/04/23 02:38:52;;;;;;;35.00;19.70;;;;;;;8.83;74.35;99896.95;218695;1291;138754;-85
2023/04/23 02:43:53;;;;;;;33.00;19.10;;;;;;;8.79;74.35;99892.45;218109;1290;138935;-85
2023/04/23 02:48:53;;;;;;;34.60;18.60;;;;;;;8.73;74.43;99895.62;218718;1290;138697;-86
2023/04/23 02:53:54;;;;;;;31.20;18.40;;;;;;;8.69;74.79;99895.88;218138;1290;139849;-85
2023/04/23 02:58:54;;;;;;;35.10;20.40;;;;;;;8.64;74.95;99892.85;218325;1290;139690;-86
2023/04/23 03:03:55;;;;;;;39.00;22.00;;;;;;;8.59;75.22;99890.77;218483;1290;139689;-86
2023/04/23 03:08:55;;;;;;;36.40;20.60;;;;;;;8.56;75.34;99887.45;218044;1290;139417;-85
2023/04/23 03:13:56;;;;;;;41.60;22.10;;;;;;;8.53;75.69;99888.59;218597;1290;95666;-86
2023/04/23 03:18:56;;;;;;;36.80;22.40;;;;;;;8.50;75.83;99884.17;218115;1290;139242;-85
2023/04/23 03:23:57;;;;;;;37.60;21.60;;;;;;;8.49;75.84;99880.64;218680;1290;138838;-85
2023/04/23 03:28:57;;;;;;;37.00;22.60;;;;;;;8.45;75.80;99877.23;218203;1290;140137;-85
2023/04/23 03:33:57;;;;;;;41.70;22.90;;;;;;;8.42;76.20;99876.01;218556;1290;139024;-85
2023/04/23 03:38:58;;;;;;;41.60;22.70;;;;;;;8.38;76.31;99872.37;217936;1290;139772;-85
2023/04/23 03:43:58;;;;;;;35.70;21.40;;;;;;;8.33;76.84;99875.76;218734;1290;95665;-85
2023/04/23 03:48:59;;;;;;;32.50;20.10;;;;;;;8.28;77.37;99876.25;218024;1290;138981;-85
2023/04/23 03:53:59;;;;;;;37.00;21.70;;;;;;;8.22;77.55;99875.17;218689;1290;138679;-85
2023/04/23 03:59:00;;;;;;;37.20;21.30;;;;;;;8.16;77.59;99870.59;218052;1290;139686;-85
2023/04/23 04:04:00;;;;;;;36.40;21.60;;;;;;;8.12;77.89;99870.16;218767;1290;138887;-85
2023/04/23 04:09:00;;;;;;;35.80;20.70;;;;;;;8.08;78.19;99871.67;218131;1290;140270;-85
2023/04/23 04:14:01;;;;;;;40.00;22.80;;;;;;;8.06;78.57;99871.89;218804;1290;95677;-85
2023/04/23 04:19:02;;;;;;;39.30;21.70;;;;;;;8.04;78.57;99869.83;217985;1290;250393;-85
2023/04/23 04:24:03;;;;;;;35.60;21.20;;;;;;;8.04;78.73;99868.98;218546;1290;138826;-85
2023/04/23 04:29:04;;;;;;;37.00;20.90;;;;;;;8.04;79.05;99868.81;217992;1290;139611;-85
2023/04/23 04:34:06;;;;;;;43.10;22.10;;;;;;;8.07;79.38;99866.96;218725;1289;138845;-85
2023/04/23 04:39:07;;;;;;;43.60;23.00;;;;;;;8.12;79.80;99863.03;218065;1290;139929;-85
2023/04/23 04:44:08;;;;;;;40.20;22.60;;;;;;;8.19;79.88;99862.33;218727;1290;95592;-85
2023/04/23 04:49:09;;;;;;;37.20;20.60;;;;;;;8.26;79.95;99866.98;218082;1290;139555;-84
2023/04/23 04:54:10;;;;;;;35.80;21.30;;;;;;;8.33;80.25;99863.77;218367;1290;139107;-86
2023/04/23 04:59:10;;;;;;;37.30;21.30;;;;;;;8.44;80.62;99862.39;218165;1290;139686;-85
2023/04/23 05:04:10;;;;;;;38.20;21.40;;;;;;;8.53;80.67;99858.58;218605;1290;138731;-85
2023/04/23 05:09:11;;;;;;;34.60;19.90;;;;;;;8.66;80.61;99858.70;218016;1290;138950;-83
2023/04/23 05:14:11;;;;;;;33.30;19.60;;;;;;;8.84;80.53;99852.14;218693;1290;95732;-86
2023/04/23 05:19:12;;;;;;;36.70;20.50;;;;;;;9.00;80.28;99849.05;218063;1290;139247;-86
2023/04/23 05:24:12;;;;;;;31.80;18.60;;;;;;;9.20;80.13;99847.39;218614;1290;138698;-88
2023/04/23 05:29:16;;;;;;;30.50;17.50;;;;;;;9.41;79.92;99840.48;218037;1290;139740;-86
2023/04/23 05:34:17;;;;;;;27.20;17.30;;;;;;;9.64;79.78;99844.92;218691;1290;138766;-85
2023/04/23 05:39:17;;;;;;;31.00;18.70;;;;;;;9.89;79.43;99846.00;218064;1290;141096;-86
2023/04/23 05:44:17;;;;;;;34.30;17.80;;;;;;;10.32;79.10;99848.23;218760;1290;95671;-86
2023/04/23 05:49:18;;;;;;;32.10;18.80;;;;;;;10.84;77.98;99847.67;218125;1290;141501;-85
2023/04/23 05:54:18;;;;;;;27.80;16.60;;;;;;;11.39;76.68;99848.61;218552;1290;139795;-86
2023/04/23 05:59:19;;;;;;;25.50;14.40;;;;;;;11.97;75.20;99839.23;218164;1290;141015;-86
2023/04/23 06:04:19;;;;;;;26.40;14.40;;;;;;;12.49;73.25;99832.52;218558;1290;139976;-87
2023/04/23 06:09:19;;;;;;;21.90;13.10;;;;;;;12.88;72.59;99831.70;218150;1290;140020;-88
2023/04/23 06:14:20;;;;;;;20.40;13.10;;;;;;;13.20;71.08;99830.59;218771;1290;95680;-85
2023/04/23 06:19:20;;;;;;;21.20;13.20;;;;;;;13.45;70.10;99832.64;218228;1290;139035;-89
2023/04/23 06:24:20;;;;;;;21.30;12.40;;;;;;;13.70;68.76;99832.45;218630;1290;139101;-86
2023/04/23 06:29:21;;;;;;;20.70;12.60;;;;;;;13.87;67.94;99832.02;218190;1290;139511;-86
2023/04/23 06:34:22;;;;;;;20.10;11.40;;;;;;;14.00;67.96;99824.50;218527;1290;139029;-86
2023/04/23 06:39:24;;;;;;;19.60;10.80;;;;;;;14.21;66.69;99826.45;218106;1290;139305;-93
2023/04/23 06:44:24;;;;;;;18.10;11.00;;;;;;;14.31;65.54;99827.45;218681;1290;95690;-86
2023/04/23 06:49:25;;;;;;;15.50;9.50;;;;;;;14.40;65.65;99813.64;218111;1290;138731;-84
2023/04/23 06:54:26;;;;;;;17.80;9.50;;;;;;;14.53;65.16;99817.01;218756;1290;138143;-92
2023/04/23 06:59:27;;;;;;;17.40;8.90;;;;;;;14.67;64.51;99810.95;218001;1290;138366;-90
2023/04/23 07:04:27;;;;;;;17.50;9.60;;;;;;;14.84;63.76;99815.41;218513;1290;138253;-89
2023/04/23 07:09:28;;;;;;;13.80;9.10;;;;;;;15.05;63.11;99819.12;218017;1290;138380;-91
2023/04/23 07:14:33;;;;;;;17.70;8.50;;;;;;;15.21;62.88;99810.77;218565;1290;138173;-92
2023/04/23 07:19:34;;;;;;;18.60;8.50;;;;;;;15.41;62.53;99808.84;218114;1290;138835;-87
2023/04/23 07:24:35;;;;;;;14.90;8.80;;;;;;;15.63;61.86;99804.23;218691;1290;138399;-92
2023/04/23 07:29:35;;;;;;;15.40;8.20;;;;;;;15.80;61.38;99795.41;217951;1290;138849;-89
2023/04/23 07:34:36;;;;;;;15.30;8.40;;;;;;;16.00;61.31;99793.09;218610;1290;138122;-90
2023/04/23 07:39:41;;;;;;;14.90;7.30;;;;;;;16.22;60.06;99787.06;217972;1290;138749;-91
2023/04/23 07:44:43;;;;;;;12.40;7.70;;;;;;;16.40;59.16;99786.44;218430;1290;138212;-89
2023/04/23 07:49:45;;;;;;;15.10;7.40;;;;;;;16.61;58.89;99785.73;218153;1290;138856;-89
2023/04/23 07:54:46;;;;;;;14.30;7.20;;;;;;;16.81;58.55;99775.85;218647;1290;138086;-88
2023/04/23 07:59:46;;;;;;;13.50;7.40;;;;;;;17.04;58.30;99771.55;218243;1290;139820;-87
2023/04/23 08:04:46;;;;;;;15.40;6.10;;;;;;;17.31;57.25;99769.74;218735;1290;138297;-83
2023/04/23 08:09:47;;;;;;;13.20;6.90;;;;;;;17.58;57.15;99760.36;218177;1290;139069;-85
2023/04/23 08:14:49;;;;;;;10.90;5.90;;;;;;;17.87;56.05;99765.73;218678;1290;138995;-89
2023/04/23 08:19:50;;;;;;;11.40;6.00;;;;;;;18.22;54.96;99759.89;218304;1290;138155;-84
2023/04/23 08:24:50;;;;;;;13.70;6.00;;;;;;;18.71;54.31;99759.74;218786;1290;138395;-88
2023/04/23 08:29:51;;;;;;;11.40;5.80;;;;;;;19.27;53.34;99759.19;217924;1290;139565;-91
2023/04/23 08:34:51;;;;;;;12.60;5.20;;;;;;;19.94;52.56;99752.44;218623;1290;138565;-86
2023/04/23 08:39:52;;;;;;;15.60;6.20;;;;;;;20.75;51.22;99741.49;218185;1290;139766;-85
2023/04/23 08:44:53;;;;;;;18.60;4.70;;;;;;;21.58;50.70;99737.36;218689;1290;138246;-86
2023/04/23 08:49:54;;;;;;;10.80;5.20;;;;;;;22.49;49.78;99733.00;218284;1290;138906;-82
2023/04/23 08:55:03;;;;;;;12.70;5.20;;;;;;;23.21;46.88;99724.89;218710;1290;138121;-83
2023/04/23 09:00:05;;;;;;;16.00;5.30;;;;;;;23.62;45.75;99724.25;218045;1290;138790;-86
2023/04/23 09:05:07;;;;;;;12.70;5.20;;;;;;;24.01;43.76;99721.36;218749;1290;138349;-88
2023/04/23 09:10:10;;;;;;;11.30;5.10;;;;;;;24.11;42.32;99711.67;218265;1290;138268;-85
2023/04/23 09:15:11;;;;;;;10.30;4.70;;;;;;;24.42;42.26;99708.85;218561;1290;138396;-94
2023/04/23 09:20:13;;;;;;;13.30;4.80;;;;;;;24.55;39.99;99705.90;218127;1290;138748;-90
2023/04/23 09:25:19;;;;;;;10.90;4.40;;;;;;;24.46;39.21;99699.81;218520;1290;138138;-89
2023/04/23 09:30:20;;;;;;;13.50;4.80;;;;;;;24.54;39.77;99697.39;217895;1290;139412;-89
2023/04/23 09:35:20;;;;;;;9.70;4.30;;;;;;;24.96;39.17;99686.18;218544;1290;138217;-87
2023/04/23 09:40:26;;;;;;;8.70;4.40;;;;;;;25.02;37.88;99678.38;218206;1290;139023;-87
2023/04/23 09:45:28;;;;;;;9.00;4.40;;;;;;;25.20;38.10;99672.61;218640;1290;136904;-88
2023/04/23 09:50:32;;;;;;;8.20;4.40;;;;;;;25.55;38.49;99670.88;218019;1291;138553;-85
2023/04/23 09:55:37;;;;;;;9.60;4.30;;;;;;;26.14;38.27;99664.81;218624;1290;107087;-93
2023/04/23 10:00:38;;;;;;;11.10;4.70;;;;;;;26.77;36.74;99660.29;217899;1290;139349;-85
2023/04/23 10:05:41;;;;;;;10.50;4.30;;;;;;;27.10;36.44;99657.63;218657;1290;138130;-89
2023/04/23 10:10:44;;;;;;;8.00;3.90;;;;;;;27.19;34.08;99655.05;217888;1290;138342;-88
2023/04/23 10:15:47;;;;;;;8.80;4.10;;;;;;;27.00;34.04;99649.83;218540;1290;138117;-90
2023/04/23 10:20:49;;;;;;;9.80;4.00;;;;;;;26.86;33.56;99650.08;218050;1290;138655;-86
2023/04/23 10:25:55;;;;;;;10.30;4.20;;;;;;;26.70;33.00;99655.43;218768;1290;96130;-88
2023/04/23 10:30:56;;;;;;;11.30;4.10;;;;;;;26.46;33.67;99651.41;218033;1290;138480;-90
2023/04/23 10:35:57;;;;;;;9.30;4.70;;;;;;;26.47;34.56;99642.85;218638;1290;138055;-90
2023/04/23 10:41:00;;;;;;;8.50;4.20;;;;;;;26.41;33.95;99647.38;217944;1290;138717;-92
2023/04/23 10:46:01;;;;;;;9.60;3.90;;;;;;;26.03;33.42;99655.39;218583;1290;138230;-86
2023/04/23 10:51:01;;;;;;;8.00;4.40;;;;;;;25.68;33.26;99647.52;218034;1290;138422;-86
2023/04/23 10:56:08;;;;;;;11.60;5.00;;;;;;;25.43;35.03;99643.70;218869;1290;95604;-88
2023/04/23 11:01:09;;;;;;;10.40;4.70;;;;;;;25.50;35.15;99647.41;218142;1290;138281;-93
2023/04/23 11:06:14;;;;;;;9.60;5.00;;;;;;;25.33;35.87;99640.41;218708;1290;137947;-90
2023/04/23 11:11:15;;;;;;;11.00;4.40;;;;;;;25.44;36.06;99644.37;218054;1290;138339;-92
2023/04/23 11:16:20;;;;;;;8.40;3.70;;;;;;;25.19;34.62;99650.79;218483;1290;138164;-88
2023/04/23 11:21:21;;;;;;;7.60;3.70;;;;;;;24.88;34.63;99658.54;218107;1290;140511;-92
2023/04/23 11:26:26;;;;;;;8.70;4.00;;;;;;;24.75;35.20;99657.74;218790;1290;96205;-90
2023/04/23 11:31:27;;;;;;;;;;;;;;;24.61;35.88;99650.44;218128;1290;142206;-90
2023/04/23 11:36:28;;;;;;;9.30;4.30;;;;;;;24.37;36.51;99645.99;218514;1290;125888;-88
2023/04/23 11:41:29;;;;;;;8.90;3.90;;;;;;;24.24;37.54;99646.80;218135;1291;138597;-90
2023/04/23 11:46:29;;;;;;;8.20;4.00;;;;;;;24.10;37.83;99646.69;218648;1290;139789;-92
2023/04/23 11:51:30;;;;;;;9.20;4.20;;;;;;;23.97;38.89;99644.73;218071;1290;138342;-91
2023/04/23 11:56:31;;;;;;;10.60;4.30;;;;;;;23.80;39.21;99654.14;218486;1290;138263;-92
2023/04/23 12:01:53;;;;;;;9.10;4.50;;;;;;;23.57;39.69;99658.06;218188;1290;139157;-85
2023/04/23 12:06:54;;;;;;;9.80;4.30;;;;;;;23.34;41.05;99651.67;218642;1290;138508;-90
2023/04/23 12:11:59;;;;;;;8.30;4.40;;;;;;;23.20;41.25;99653.06;218146;1290;139286;-92
2023/04/23 12:17:08;;;;;;;10.10;5.10;;;;;;;22.98;41.96;99652.86;218657;1290;138191;-90
2023/04/23 12:22:09;;;;;;;12.20;4.70;;;;;;;22.71;42.92;99652.54;218141;1290;138887;-91
2023/04/23 12:27:14;;;;;;;9.10;4.00;;;;;;;22.65;43.99;99658.39;218491;1290;139121;-92
2023/04/23 12:32:15;;;;;;;8.90;3.20;;;;;;;22.60;44.58;99660.48;218019;1290;138559;-93
2023/04/23 12:37:16;;;;;;;7.50;3.10;;;;;;;22.50;44.90;99662.27;218700;1290;138529;-92
2023/04/23 12:42:17;;;;;;;6.10;2.80;;;;;;;22.37;44.41;99668.64;218156;1290;139151;-90
2023/04/23 12:47:20;;;;;;;9.30;3.70;;;;;;;22.13;44.75;99671.66;218510;1291;138089;-90
2023/04/23 12:52:20;;;;;;;6.20;3.10;;;;;;;21.96;45.74;99666.42;218098;1290;138538;-91
2023/04/23 12:57:23;;;;;;;7.80;3.30;;;;;;;21.91;46.06;99673.55;218475;1290;138330;-91
2023/04/23 13:02:26;;;;;;;9.80;3.40;;;;;;;21.79;46.71;99669.35;218246;1290;138730;-94
2023/04/23 13:07:27;;;;;;;8.20;3.40;;;;;;;21.80;47.66;99666.87;218439;1290;138132;-90
2023/04/23 13:12:27;;;;;;;7.70;3.20;;;;;;;21.75;47.50;99667.25;218296;1290;138115;-88
2023/04/23 13:17:27;;;;;;;7.40;3.50;;;;;;;21.61;47.73;99674.84;218649;1290;138554;-92
2023/04/23 13:22:28;;;;;;;6.60;3.40;;;;;;;21.55;48.69;99668.70;218161;1290;138307;-87
2023/04/23 13:27:29;;;;;;;6.40;3.80;;;;;;;21.45;49.09;99675.86;218593;1290;138815;-92
2023/04/23 13:32:37;;;;;;;9.60;4.20;;;;;;;21.35;50.14;99671.92;217884;1290;138519;-87
2023/04/23 13:37:40;;;;;;;8.70;3.40;;;;;;;21.35;50.15;99670.36;218871;1290;95948;-89
2023/04/23 13:42:40;;;;;;;8.10;3.70;;;;;;;21.23;49.92;99670.15;218099;1290;138152;-91
2023/04/23 13:47:41;;;;;;;6.60;3.20;;;;;;;21.13;50.39;99676.43;218712;1291;137913;-88
2023/04/23 13:52:41;;;;;;;7.20;3.40;;;;;;;20.94;51.10;99673.96;218138;1290;138239;-88
2023/04/23 13:57:42;;;;;;;9.70;4.10;;;;;;;20.77;51.78;99679.83;218468;1290;138271;-91
2023/04/23 14:02:42;;;;;;;7.20;3.40;;;;;;;20.50;53.37;99689.83;217866;1290;138050;-91
2023/04/23 14:07:43;;;;;;;8.10;4.00;;;;;;;20.25;57.17;99692.90;218729;1290;95675;-90
2023/04/23 14:12:45;;;;;;;7.50;3.90;;;;;;;19.99;61.20;99683.63;218183;1291;138484;-90
2023/04/23 14:17:46;;;;;;;10.50;3.80;;;;;;;19.80;63.44;99675.98;218665;1290;138264;-88
2023/04/23 14:22:49;;;;;;;8.50;4.40;;;;;;;19.74;64.22;99671.91;218128;1291;138541;-88
2023/04/23 14:27:50;;;;;;;8.70;3.70;;;;;;;19.58;64.85;99669.46;218450;1291;138020;-88
2023/04/23 14:32:52;;;;;;;8.30;3.90;;;;;;;19.52;65.72;99666.19;218115;1290;138096;-88
2023/04/23 14:37:52;;;;;;;11.50;4.90;;;;;;;19.55;65.31;99662.65;218783;1290;95619;-88
2023/04/23 14:42:53;;;;;;;8.50;4.70;;;;;;;19.54;64.35;99663.73;218190;1290;138277;-87
2023/04/23 14:47:53;;;;;;;10.30;4.90;;;;;;;19.47;63.45;99657.29;218655;1290;138618;-89
2023/04/23 14:52:54;;;;;;;8.40;4.70;;;;;;;19.38;63.52;99650.45;217997;1291;138485;-86
2023/04/23 14:57:55;;;;;;;9.10;4.70;;;;;;;19.34;63.10;99650.20;218567;1290;138055;-87
2023/04/23 15:02:55;;;;;;;9.30;4.60;;;;;;;19.23;63.07;99650.20;217949;1290;138323;-87
2023/04/23 15:07:56;;;;;;;8.90;4.40;;;;;;;19.12;63.41;99647.59;218566;1291;95677;-87
2023/04/23 15:13:07;;;;;;;9.40;4.40;;;;;;;19.04;63.75;99648.88;218031;1291;139766;-87
2023/04/23 15:18:08;;;;;;;11.10;5.50;;;;;;;19.00;64.33;99645.20;218483;1290;138910;-88
2023/04/23 15:23:09;;;;;;;8.50;5.00;;;;;;;18.97;64.40;99642.54;218032;1290;138547;-87
2023/04/23 15:28:09;;;;;;;9.50;4.90;;;;;;;18.91;64.66;99643.79;218597;1290;138192;-86
2023/04/23 15:33:10;;;;;;;9.70;5.20;;;;;;;18.87;64.92;99641.45;218010;1291;138267;-86
2023/04/23 15:38:10;;;;;;;10.60;4.80;;;;;;;18.82;64.99;99641.38;218715;1291;95669;-86
2023/04/23 15:43:12;;;;;;;9.30;4.50;;;;;;;18.80;65.24;99642.09;218107;1291;138679;-86
2023/04/23 15:48:14;;;;;;;12.70;6.20;;;;;;;18.79;65.40;99639.74;218271;1290;138386;-85
2023/04/23 15:53:14;;;;;;;12.20;5.90;;;;;;;18.76;65.67;99643.42;218040;1290;139195;-86
2023/04/23 15:58:15;;;;;;;13.10;6.90;;;;;;;18.68;66.07;99641.40;218663;1291;138471;-87
2023/04/23 16:03:15;;;;;;;13.50;6.60;;;;;;;18.63;66.40;99639.04;218173;1290;138558;-85
2023/04/23 16:08:16;;;;;;;11.10;6.10;;;;;;;18.58;66.81;99641.41;218720;1291;95617;-86
2023/04/23 16:13:16;;;;;;;13.50;6.00;;;;;;;18.53;67.34;99642.77;218096;1290;138374;-86
2023/04/23 16:18:17;;;;;;;13.30;6.20;;;;;;;18.47;67.84;99644.18;218381;1290;261385;-88
2023/04/23 16:23:17;;;;;;;11.10;6.30;;;;;;;18.41;68.87;99640.95;218113;1291;138909;-87
2023/04/23 16:28:17;;;;;;;12.10;6.80;;;;;;;18.33;69.19;99640.83;218643;1291;138261;-86
2023/04/23 16:33:18;;;;;;;12.50;6.70;;;;;;;18.24;69.70;99640.77;218080;1290;138263;-88
2023/04/23 16:38:18;;;;;;;12.60;6.60;;;;;;;18.15;70.46;99640.50;218858;1291;95653;-87
2023/04/23 16:43:18;;;;;;;13.30;6.50;;;;;;;18.07;70.79;99640.77;218224;1291;138653;-88
2023/04/23 16:48:20;;;;;;;13.40;8.60;;;;;;;17.98;71.38;99634.54;218421;1291;138753;-89
2023/04/23 16:53:20;;;;;;;14.20;8.20;;;;;;;17.90;72.06;99632.96;217895;1291;139094;-90
2023/04/23 16:58:21;;;;;;;14.30;7.20;;;;;;;17.82;72.67;99631.86;218627;1290;138864;-90
2023/04/23 17:03:22;;;;;;;15.40;8.30;;;;;;;17.75;73.44;99630.04;218040;1291;138965;-91
2023/04/23 17:08:23;;;;;;;13.90;8.50;;;;;;;17.68;73.92;99624.90;218767;1291;95645;-91
2023/04/23 17:13:24;;;;;;;15.30;7.70;;;;;;;17.63;74.30;99627.20;218107;1291;139484;-92
2023/04/23 17:18:24;;;;;;;15.30;8.40;;;;;;;17.58;74.80;99623.45;218656;1291;138923;-92
2023/04/23 17:23:25;;;;;;;16.50;8.80;;;;;;;17.54;75.20;99624.59;218061;1291;140919;-90
2023/04/23 17:28:25;;;;;;;16.30;8.70;;;;;;;17.53;75.03;99618.13;218599;1291;139844;-89
2023/04/23 17:33:25;;;;;;;16.00;8.20;;;;;;;17.53;76.29;99617.34;218107;1290;139059;-92
2023/04/23 17:38:27;;;;;;;13.80;8.80;;;;;;;17.48;76.76;99615.33;218674;1291;95998;-90
2023/04/23 17:43:28;;;;;;;17.00;8.70;;;;;;;17.46;77.26;99617.56;218086;1291;139527;-91
2023/04/23 17:48:28;;;;;;;14.60;8.50;;;;;;;17.44;77.57;99610.78;218739;1291;138899;-91
2023/04/23 17:53:28;;;;;;;17.50;10.80;;;;;;;17.41;78.06;99611.58;218065;1290;139540;-92
2023/04/23 17:58:32;;;;;;;16.20;9.00;;;;;;;17.35;78.37;99612.36;218481;1290;139031;-90
2023/04/23 18:03:33;;;;;;;16.10;9.10;;;;;;;17.30;78.71;99614.64;218044;1291;139100;-90
2023/04/23 18:08:33;;;;;;;15.10;9.10;;;;;;;17.26;78.80;99614.68;218603;1290;139464;-90
2023/04/23 18:13:37;;;;;;;16.10;8.90;;;;;;;17.21;78.82;99619.85;218057;1290;139007;-91
2023/04/23 18:18:37;;;;;;;17.70;10.40;;;;;;;17.16;79.07;99625.15;218651;1291;138866;-90
2023/04/23 18:23:38;;;;;;;15.90;9.70;;;;;;;17.10;79.23;99628.52;218149;1292;140540;-90
2023/04/23 18:28:39;;;;;;;24.00;13.10;;;;;;;17.02;79.60;99627.45;218658;1291;139001;-90
2023/04/23 18:33:39;;;;;;;39.80;19.00;;;;;;;16.95;79.99;99635.10;218079;1292;140327;-90
2023/04/23 18:38:46;;;;;;;28.30;15.40;;;;;;;16.90;80.31;99644.55;218664;1292;139366;-90
2023/04/23 18:43:47;;;;;;;23.10;14.10;;;;;;;16.87;80.34;99644.86;218024;1294;139710;-90
2023/04/23 18:48:57;;;;;;;21.20;12.20;;;;;;;16.82;80.65;99638.87;218424;1292;139134;-92
2023/04/23 18:54:00;;;;;;;17.90;10.20;;;;;;;16.79;80.58;99641.02;218183;1292;139257;-89
2023/04/23 18:59:00;;;;;;;19.00;10.50;;;;;;;16.75;80.79;99641.52;218095;1291;139357;-90
2023/04/23 19:04:02;;;;;;;18.30;10.60;;;;;;;16.73;81.11;99642.21;218427;1291;140176;-90
2023/04/23 19:09:02;;;;;;;22.30;12.20;;;;;;;16.68;81.37;99639.97;218085;1290;139225;-87
2023/04/23 19:14:03;;;;;;;18.80;11.50;;;;;;;16.62;81.65;99636.64;218702;1290;95623;-91
2023/04/23 19:19:04;;;;;;;18.10;10.00;;;;;;;16.57;81.67;99639.38;218111;1291;140270;-89
2023/04/23 19:24:05;;;;;;;16.90;11.40;;;;;;;16.55;81.50;99632.03;218648;1292;139697;-90
2023/04/23 19:29:05;;;;;;;19.30;11.80;;;;;;;16.54;81.65;99628.27;218059;1290;140179;-91
2023/04/23 19:34:05;;;;;;;27.40;15.50;;;;;;;16.50;82.01;99627.42;218564;1291;140053;-90
2023/04/23 19:39:06;;;;;;;18.30;10.40;;;;;;;16.45;81.95;99625.33;218114;1290;139281;-89
2023/04/23 19:44:06;;;;;;;14.10;8.90;;;;;;;16.36;82.13;99623.39;218782;1290;96241;-90
2023/04/23 19:49:07;;;;;;;15.10;10.10;;;;;;;16.27;82.39;99627.02;218123;1290;139622;-90
2023/04/23 19:54:10;;;;;;;22.20;10.80;;;;;;;16.17;82.69;99628.94;218601;1290;138971;-90
2023/04/23 19:59:14;;;;;;;16.50;10.30;;;;;;;16.01;83.83;99625.28;218123;1290;140605;-89
2023/04/23 20:04:14;;;;;;;16.50;10.30;;;;;;;15.79;84.53;99619.63;218594;1290;139380;-89
2023/04/23 20:09:19;;;;;;;17.10;10.20;;;;;;;15.65;85.03;99625.16;218051;1290;142151;-89
2023/04/23 20:14:19;;;;;;;16.40;9.50;;;;;;;15.48;85.38;99627.19;218664;1290;95964;-90
2023/04/23 20:19:20;;;;;;;15.40;10.60;;;;;;;15.30;85.36;99627.87;218066;1291;139031;-89
2023/04/23 20:24:20;;;;;;;21.20;11.70;;;;;;;15.15;85.94;99630.08;218625;1292;139114;-87
2023/04/23 20:29:21;;;;;;;31.20;14.10;;;;;;;14.99;86.60;99624.84;218116;1291;139679;-87
2023/04/23 20:34:21;;;;;;;30.50;15.30;;;;;;;14.86;86.90;99617.98;218659;1290;139065;-87
2023/04/23 20:39:23;;;;;;;28.30;14.80;;;;;;;14.73;87.61;99619.43;218094;1290;139278;-87
2023/04/23 20:44:24;;;;;;;30.70;15.20;;;;;;;14.60;88.14;99615.39;218717;1290;95762;-88
2023/04/23 20:49:24;;;;;;;33.80;16.10;;;;;;;14.44;88.11;99613.79;218092;1290;139844;-89
2023/04/23 20:54:25;;;;;;;28.70;15.40;;;;;;;14.30;88.75;99606.13;218666;1290;140094;-87
2023/04/23 20:59:25;;;;;;;27.10;13.30;;;;;;;14.14;89.41;99600.28;218065;1290;139783;-88
2023/04/23 21:04:26;;;;;;;24.50;14.30;;;;;;;13.98;89.56;99602.26;218653;1290;139021;-88
2023/04/23 21:09:26;;;;;;;24.80;14.20;;;;;;;13.88;90.13;99599.97;218103;1290;139504;-88
2023/04/23 21:14:27;;;;;;;25.30;13.90;;;;;;;13.70;90.66;99598.27;218730;1290;96115;-88
2023/04/23 21:19:28;;;;;;;26.30;14.50;;;;;;;13.50;90.73;99593.04;218144;1291;138886;-87
2023/04/23 21:24:28;;;;;;;18.10;10.90;;;;;;;13.36;91.17;99592.11;218552;1290;139541;-88
2023/04/23 21:29:28;;;;;;;20.20;11.30;;;;;;;13.27;92.07;99583.55;218106;1290;140582;-87
2023/04/23 21:34:29;;;;;;;20.40;12.20;;;;;;;13.18;92.98;99574.60;218448;1290;139194;-88
2023/04/23 21:39:30;;;;;;;19.30;11.30;;;;;;;13.10;93.71;99570.29;218106;1290;139528;-88
2023/04/23 21:44:31;;;;;;;19.80;11.50;;;;;;;13.03;93.71;99564.77;218642;1290;95808;-88
2023/04/23 21:49:32;;;;;;;19.30;10.80;;;;;;;12.96;93.67;99555.39;218151;1290;139919;-88
2023/04/23 21:54:32;;;;;;;31.10;13.40;;;;;;;12.92;94.27;99552.02;218598;1290;139399;-88
2023/04/23 21:59:32;;;;;;;21.70;12.70;;;;;;;12.87;94.80;99547.66;218026;1290;140803;-87
2023/04/23 22:04:33;;;;;;;18.70;11.30;;;;;;;12.85;94.92;99543.91;218539;1290;139244;-87
2023/04/23 22:09:33;;;;;;;18.80;12.00;;;;;;;12.84;95.59;99544.15;218002;1290;139749;-87
2023/04/23 22:14:34;;;;;;;21.50;12.80;;;;;;;12.78;95.10;99541.15;218441;1290;140387;-87
2023/04/23 22:19:34;;;;;;;21.60;12.60;;;;;;;12.72;95.25;99544.38;218260;1290;139222;-87
2023/04/23 22:24:34;;;;;;;17.50;11.40;;;;;;;12.64;96.24;99536.96;218659;1290;140650;-87
2023/04/23 22:29:35;;;;;;;19.50;11.50;;;;;;;12.58;95.86;99532.71;217949;1291;139112;-87
2023/04/23 22:34:35;;;;;;;16.70;11.20;;;;;;;12.53;96.78;99530.88;218544;1291;139396;-86
2023/04/23 22:39:35;;;;;;;17.60;11.20;;;;;;;12.45;96.26;99522.52;218098;1290;141195;-86
2023/04/23 22:44:36;;;;;;;23.10;14.30;;;;;;;12.44;96.11;99525.30;218674;1290;139266;-86
2023/04/23 22:49:37;;;;;;;27.10;14.10;;;;;;;12.43;97.30;99524.52;218217;1290;139417;-86